createdAt,value
2023-01-20T00:02:27.051Z,99.90
2023-01-20T00:04:55.790Z,99.90
2023-01-20T00:07:24.996Z,99.90
2023-01-20T00:10:30.260Z,99.90
2023-01-20T00:13:17.298Z,99.90
2023-01-20T00:15:48.763Z,99.90
2023-01-20T00:18:19.050Z,99.90
2023-01-20T00:20:47.817Z,99.90
2023-01-20T00:23:16.550Z,99.90
2023-01-20T00:26:05.845Z,99.90
2023-01-20T00:28:35.294Z,99.90
2023-01-20T00:31:15.042Z,99.90
2023-01-20T00:34:05.090Z,99.90
2023-01-20T00:36:34.345Z,99.90
2023-01-20T00:39:04.075Z,99.90
2023-01-20T00:41:33.199Z,99.90
2023-01-20T00:47:05.931Z,99.90
2023-01-20T00:49:38.172Z,99.90
2023-01-20T00:52:24.500Z,99.90
2023-01-20T00:55:29.339Z,99.90
2023-01-20T00:57:58.149Z,99.90
2023-01-20T01:00:44.192Z,99.90
2023-01-20T01:06:19.038Z,99.90
2023-01-20T01:08:48.065Z,99.90
2023-01-20T01:11:16.850Z,99.90
2023-01-20T01:14:02.940Z,99.90
2023-01-20T01:16:50.615Z,99.90
2023-01-20T01:19:22.119Z,99.90
2023-01-20T01:22:11.090Z,99.90
2023-01-20T01:24:44.338Z,99.90
2023-01-20T01:27:13.544Z,99.90
2023-01-20T01:32:48.373Z,99.90
2023-01-20T01:38:04.929Z,99.90
2023-01-20T01:43:42.249Z,99.90
2023-01-20T01:46:11.045Z,99.90
2023-01-20T01:48:44.723Z,99.90
2023-01-20T01:51:34.429Z,99.90
2023-01-20T01:54:09.916Z,99.90
2023-01-20T01:56:39.992Z,99.90
2023-01-20T01:59:26.539Z,99.90
2023-01-20T02:02:15.963Z,99.90
2023-01-20T02:05:09.304Z,99.90
2023-01-20T02:07:38.812Z,99.90
2023-01-20T02:10:10.434Z,99.90
2023-01-20T02:12:42.596Z,99.90
2023-01-20T02:15:12.120Z,99.90
2023-01-20T02:18:14.735Z,99.90
2023-01-20T02:21:17.742Z,99.90
2023-01-20T02:24:08.814Z,99.90
2023-01-20T02:27:07.742Z,99.90
2023-01-20T02:30:03.722Z,99.90
2023-01-20T02:32:57.043Z,99.90
2023-01-20T02:35:47.759Z,99.90
2023-01-20T02:38:49.792Z,99.90
2023-01-20T02:41:40.070Z,99.90
2023-01-20T02:44:35.773Z,99.90
2023-01-20T02:47:25.741Z,99.90
2023-01-20T02:49:59.743Z,99.90
2023-01-20T02:52:49.939Z,99.90
2023-01-20T02:55:24.099Z,99.90
2023-01-20T02:58:47.824Z,99.90
2023-01-20T03:01:41.716Z,99.90
2023-01-20T03:04:13.593Z,99.90
2023-01-20T03:07:02.894Z,99.90
2023-01-20T03:09:35.099Z,99.90
2023-01-20T03:12:25.819Z,99.90
2023-01-20T03:15:12.227Z,99.90
2023-01-20T03:17:41.617Z,99.90
2023-01-20T03:20:11.674Z,99.90
2023-01-20T03:22:59.181Z,99.90
2023-01-20T03:25:28.186Z,99.90
2023-01-20T03:27:56.972Z,99.90
2023-01-20T03:30:43.938Z,99.90
2023-01-20T03:33:31.130Z,99.90
2023-01-20T03:36:00.098Z,99.90
2023-01-20T03:38:49.079Z,99.90
2023-01-20T03:41:40.083Z,99.90
2023-01-20T03:44:33.251Z,99.90
2023-01-20T03:47:28.421Z,99.90
2023-01-20T03:50:24.322Z,99.90
2023-01-20T03:52:56.203Z,99.90
2023-01-20T03:55:49.135Z,99.90
2023-01-20T03:58:21.691Z,99.90
2023-01-20T04:00:52.243Z,99.90
2023-01-20T04:03:27.713Z,99.90
2023-01-20T04:06:15.983Z,99.90
2023-01-20T04:08:49.663Z,99.90
2023-01-20T04:11:20.086Z,99.90
2023-01-20T04:14:09.641Z,99.90
2023-01-20T04:16:39.010Z,99.90
2023-01-20T04:19:07.803Z,99.90
2023-01-20T04:22:13.759Z,99.90
2023-01-20T04:24:48.290Z,99.90
2023-01-20T04:27:36.011Z,99.90
2023-01-20T04:30:04.894Z,99.90
2023-01-20T04:32:52.223Z,99.90
2023-01-20T04:35:21.873Z,99.90
2023-01-20T04:37:50.649Z,99.90
2023-01-20T04:40:21.592Z,99.90
2023-01-20T04:42:51.738Z,99.90
2023-01-20T04:45:20.635Z,99.90
2023-01-20T04:47:49.403Z,99.90
2023-01-20T04:50:19.121Z,99.90
2023-01-20T04:53:06.270Z,99.90
2023-01-20T04:59:17.610Z,99.90
2023-01-20T05:02:03.772Z,99.90
2023-01-20T05:04:32.578Z,99.90
2023-01-20T05:07:01.291Z,99.90
2023-01-20T05:09:48.558Z,99.90
2023-01-20T05:12:37.859Z,99.90
2023-01-20T05:15:27.009Z,99.90
2023-01-20T05:17:55.829Z,99.90
2023-01-20T05:20:45.457Z,99.90
2023-01-20T05:23:14.517Z,99.90
2023-01-20T05:26:04.029Z,99.90
2023-01-20T05:29:12.129Z,99.90
2023-01-20T05:31:44.869Z,99.90
2023-01-20T05:34:34.536Z,99.90
2023-01-20T05:37:22.133Z,99.90
2023-01-20T05:39:51.032Z,99.90
2023-01-20T05:42:19.738Z,99.90
2023-01-20T05:44:48.468Z,99.90
2023-01-20T05:47:56.571Z,99.90
2023-01-20T05:50:29.002Z,99.90
2023-01-20T05:52:58.069Z,99.90
2023-01-20T05:55:44.435Z,99.90
2023-01-20T05:58:49.291Z,99.90
2023-01-20T06:01:18.193Z,99.90
2023-01-20T06:03:48.391Z,99.90
2023-01-20T06:06:20.509Z,99.90
2023-01-20T06:09:07.927Z,99.90
2023-01-20T06:11:36.771Z,99.90
2023-01-20T06:14:05.601Z,99.90
2023-01-20T06:16:51.959Z,99.90
2023-01-20T06:19:22.160Z,99.90
2023-01-20T06:21:50.888Z,99.90
2023-01-20T06:24:19.601Z,99.90
2023-01-20T06:27:08.457Z,99.90
2023-01-20T06:29:37.250Z,99.90
2023-01-20T06:32:24.599Z,99.90
2023-01-20T06:35:16.899Z,99.90
2023-01-20T06:38:04.685Z,99.90
2023-01-20T06:40:33.859Z,99.90
2023-01-20T06:43:03.467Z,99.90
2023-01-20T06:49:00.432Z,99.90
2023-01-20T06:51:52.653Z,99.90
2023-01-20T06:54:21.411Z,99.90
2023-01-20T06:57:08.713Z,99.90
2023-01-20T06:59:56.204Z,99.90
2023-01-20T07:02:43.572Z,99.90
2023-01-20T07:05:12.874Z,99.90
2023-01-20T07:08:19.227Z,99.90
2023-01-20T07:11:06.672Z,99.90
2023-01-20T07:13:35.448Z,99.90
2023-01-20T07:16:04.401Z,99.90
2023-01-20T07:18:52.324Z,99.90
2023-01-20T07:21:58.368Z,99.90
2023-01-20T07:28:27.519Z,99.90
2023-01-20T07:34:01.728Z,99.90
2023-01-20T07:36:51.239Z,99.90
2023-01-20T07:39:37.229Z,99.90
2023-01-20T07:42:24.459Z,99.90
2023-01-20T07:45:12.428Z,99.90
2023-01-20T07:47:42.820Z,99.90
2023-01-20T07:50:12.457Z,99.90
2023-01-20T07:52:41.295Z,99.90
2023-01-20T07:55:28.363Z,99.90
2023-01-20T07:57:57.551Z,99.90
2023-01-20T08:00:48.829Z,99.90
2023-01-20T08:03:19.082Z,99.90
2023-01-20T08:06:05.110Z,99.90
2023-01-20T08:08:34.039Z,99.90
2023-01-20T08:11:22.926Z,99.90
2023-01-20T08:13:51.841Z,99.90
2023-01-20T08:16:39.450Z,99.90
2023-01-20T08:19:09.914Z,99.90
2023-01-20T08:21:57.347Z,99.90
2023-01-20T08:24:26.119Z,99.90
2023-01-20T08:27:13.656Z,99.90
2023-01-20T08:29:42.396Z,99.90
2023-01-20T08:32:11.152Z,99.90
2023-01-20T08:34:59.708Z,99.90
2023-01-20T08:37:31.730Z,99.90
2023-01-20T08:40:55.051Z,99.90
2023-01-20T08:43:59.265Z,99.90
2023-01-20T08:46:28.508Z,99.90
2023-01-20T08:48:57.478Z,99.90
2023-01-20T08:51:29.905Z,99.90
2023-01-20T08:53:59.025Z,99.90
2023-01-20T08:59:51.945Z,99.90
2023-01-20T09:02:20.757Z,99.90
2023-01-20T09:05:07.247Z,99.90
2023-01-20T09:08:16.559Z,99.90
2023-01-20T09:11:04.092Z,99.90
2023-01-20T09:14:09.669Z,99.90
2023-01-20T09:16:57.930Z,99.70
2023-01-20T09:19:26.815Z,99.30
2023-01-20T09:22:30.973Z,99.40
2023-01-20T09:25:19.780Z,99.60
2023-01-20T09:27:48.602Z,99.70
2023-01-20T09:30:35.101Z,99.60
2023-01-20T09:33:39.800Z,99.10
2023-01-20T09:36:44.182Z,98.90
2023-01-20T09:39:32.432Z,98.70
2023-01-20T09:42:33.849Z,98.70
2023-01-20T09:45:22.880Z,98.40
2023-01-20T09:47:52.023Z,98.20
2023-01-20T09:51:01.692Z,97.70
2023-01-20T09:54:04.814Z,97.80
2023-01-20T09:56:39.291Z,97.50
2023-01-20T09:59:31.624Z,97.40
2023-01-20T10:02:05.969Z,97.00
2023-01-20T10:04:57.526Z,96.90
2023-01-20T10:07:51.206Z,97.10
2023-01-20T10:10:46.390Z,97.50
2023-01-20T10:13:23.552Z,97.50
2023-01-20T10:16:13.520Z,97.50
2023-01-20T10:19:02.604Z,97.40
2023-01-20T10:21:36.936Z,97.50
2023-01-20T10:24:43.129Z,97.20
2023-01-20T10:27:11.922Z,96.80
2023-01-20T10:30:03.113Z,96.50
2023-01-20T10:32:37.314Z,95.10
2023-01-20T10:35:15.830Z,94.10
2023-01-20T10:38:02.248Z,92.10
2023-01-20T10:40:37.769Z,91.20
2023-01-20T10:43:12.691Z,91.20
2023-01-20T10:45:55.487Z,90.80
2023-01-20T10:48:49.243Z,89.10
2023-01-20T10:51:40.006Z,87.30
2023-01-20T10:54:19.070Z,85.70
2023-01-20T10:56:53.727Z,87.50
2023-01-20T10:59:46.910Z,85.80
2023-01-20T11:02:35.483Z,83.00
2023-01-20T11:05:26.702Z,82.80
2023-01-20T11:08:14.483Z,80.20
2023-01-20T11:11:01.608Z,78.10
2023-01-20T11:13:30.450Z,77.70
2023-01-20T11:16:19.958Z,78.80
2023-01-20T11:19:32.701Z,76.20
2023-01-20T11:22:13.578Z,73.70
2023-01-20T11:24:44.698Z,73.40
2023-01-20T11:27:34.212Z,72.50
2023-01-20T11:30:08.439Z,72.20
2023-01-20T11:32:40.137Z,71.60
2023-01-20T11:35:23.009Z,71.30
2023-01-20T11:38:26.260Z,68.40
2023-01-20T11:40:55.677Z,66.50
2023-01-20T11:43:43.142Z,67.20
2023-01-20T11:46:33.491Z,66.40
2023-01-20T11:49:16.380Z,68.50
2023-01-20T11:52:04.850Z,63.10
2023-01-20T11:54:52.382Z,65.90
2023-01-20T11:57:21.219Z,67.70
2023-01-20T12:02:41.890Z,67.20
2023-01-20T12:05:20.631Z,67.00
2023-01-20T12:07:52.557Z,69.30
2023-01-20T12:10:43.849Z,69.30
2023-01-20T12:13:18.629Z,69.60
2023-01-20T12:16:09.564Z,70.00
2023-01-20T12:19:02.986Z,66.90
2023-01-20T12:21:56.145Z,68.60
2023-01-20T12:24:54.051Z,68.50
2023-01-20T12:27:29.082Z,69.00
2023-01-20T12:30:01.415Z,68.80
2023-01-20T12:32:33.326Z,68.00
2023-01-20T12:35:02.208Z,68.10
2023-01-20T12:37:57.959Z,68.00
2023-01-20T12:40:54.157Z,68.40
2023-01-20T12:44:05.545Z,69.10
2023-01-20T12:46:41.081Z,69.00
2023-01-20T12:49:38.178Z,69.10
2023-01-20T12:52:39.446Z,68.20
2023-01-20T12:55:20.115Z,68.40
2023-01-20T12:58:01.814Z,68.80
2023-01-20T13:00:56.471Z,69.00
2023-01-20T13:03:58.752Z,70.60
2023-01-20T13:07:02.291Z,71.10
2023-01-20T13:09:53.245Z,73.40
2023-01-20T13:12:48.589Z,71.80
2023-01-20T13:15:36.757Z,73.90
2023-01-20T13:18:24.824Z,72.30
2023-01-20T13:20:55.049Z,72.00
2023-01-20T13:23:27.787Z,71.80
2023-01-20T13:26:00.187Z,71.20
2023-01-20T13:28:30.306Z,69.80
2023-01-20T13:31:00.137Z,69.50
2023-01-20T13:33:36.290Z,69.80
2023-01-20T13:36:17.624Z,68.50
2023-01-20T13:38:47.287Z,68.90
2023-01-20T13:42:06.520Z,68.50
2023-01-20T13:44:36.377Z,69.70
2023-01-20T13:47:23.029Z,70.30
2023-01-20T13:50:40.582Z,71.50
2023-01-20T13:53:34.256Z,71.40
2023-01-20T13:56:27.808Z,70.80
2023-01-20T13:59:32.519Z,71.00
2023-01-20T14:05:31.315Z,71.90
2023-01-20T14:08:17.919Z,70.30
2023-01-20T14:11:05.032Z,70.40
2023-01-20T14:13:52.161Z,70.40
2023-01-20T14:19:32.613Z,70.40
2023-01-20T14:22:23.173Z,72.10
2023-01-20T14:24:53.602Z,72.10
2023-01-20T14:27:24.330Z,72.90
2023-01-20T14:30:13.149Z,72.90
2023-01-20T14:33:38.682Z,72.90
2023-01-20T14:36:25.711Z,73.00
2023-01-20T14:39:19.821Z,74.00
2023-01-20T14:41:50.317Z,73.90
2023-01-20T14:44:21.984Z,74.30
2023-01-20T14:47:10.554Z,74.20
2023-01-20T14:49:43.548Z,74.20
2023-01-20T14:53:06.994Z,74.30
2023-01-20T14:55:40.917Z,75.10
2023-01-20T14:58:28.513Z,76.30
2023-01-20T15:01:01.310Z,76.70
2023-01-20T15:03:31.764Z,76.40
2023-01-20T15:06:19.999Z,76.40
2023-01-20T15:09:07.880Z,76.70
2023-01-20T15:12:09.679Z,76.70
2023-01-20T15:15:15.690Z,78.70
2023-01-20T15:18:14.992Z,78.40
2023-01-20T15:20:48.164Z,78.90
2023-01-20T15:23:38.337Z,81.10
2023-01-20T15:26:29.024Z,81.10
2023-01-20T15:28:58.598Z,82.10
2023-01-20T15:31:27.753Z,82.10
2023-01-20T15:34:15.417Z,81.70
2023-01-20T15:37:04.110Z,81.90
2023-01-20T15:39:51.032Z,81.20
2023-01-20T15:42:38.060Z,81.80
2023-01-20T15:45:07.525Z,82.00
2023-01-20T15:47:36.309Z,82.30
2023-01-20T15:50:12.743Z,83.00
2023-01-20T15:52:41.523Z,83.20
2023-01-20T15:55:32.901Z,82.70
2023-01-20T15:58:01.626Z,83.10
2023-01-20T16:00:47.991Z,82.90
2023-01-20T16:03:55.073Z,82.50
2023-01-20T16:06:34.321Z,82.30
2023-01-20T16:09:22.449Z,83.40
2023-01-20T16:11:51.293Z,83.50
2023-01-20T16:14:20.079Z,84.30
2023-01-20T16:16:48.825Z,85.40
2023-01-20T16:19:36.847Z,86.30
2023-01-20T16:22:08.747Z,86.50
2023-01-20T16:24:37.883Z,87.50
2023-01-20T16:27:15.209Z,87.50
2023-01-20T16:30:21.049Z,87.40
2023-01-20T16:32:49.765Z,88.80
2023-01-20T16:38:45.133Z,89.10
2023-01-20T16:41:18.028Z,89.60
2023-01-20T16:43:46.772Z,89.90
2023-01-20T16:46:17.019Z,89.30
2023-01-20T16:49:03.271Z,90.10
2023-01-20T16:51:50.721Z,90.50
2023-01-20T16:54:21.219Z,90.80
2023-01-20T16:57:08.250Z,90.70
2023-01-20T16:59:55.614Z,90.60
2023-01-20T17:03:02.532Z,91.00
2023-01-20T17:05:31.590Z,91.30
2023-01-20T17:08:55.175Z,91.60
2023-01-20T17:11:27.299Z,91.30
2023-01-20T17:13:57.084Z,91.90
2023-01-20T17:16:46.460Z,92.60
2023-01-20T17:19:17.685Z,93.10
2023-01-20T17:21:47.669Z,93.20
2023-01-20T17:24:39.362Z,92.80
2023-01-20T17:27:09.535Z,93.70
2023-01-20T17:29:38.547Z,93.30
2023-01-20T17:32:07.380Z,93.80
2023-01-20T17:34:36.224Z,93.70
2023-01-20T17:37:05.043Z,93.50
2023-01-20T17:39:33.790Z,94.20
2023-01-20T17:42:21.201Z,94.20
2023-01-20T17:44:53.449Z,94.60
2023-01-20T17:50:45.613Z,94.30
2023-01-20T17:53:14.495Z,95.00
2023-01-20T17:56:11.755Z,95.20
2023-01-20T18:02:06.418Z,95.60
2023-01-20T18:04:53.625Z,96.50
2023-01-20T18:07:22.421Z,96.00
2023-01-20T18:10:28.370Z,96.00
2023-01-20T18:13:16.129Z,95.80
2023-01-20T18:15:45.201Z,96.90
2023-01-20T18:18:33.855Z,97.20
2023-01-20T18:21:28.271Z,97.20
2023-01-20T18:24:15.792Z,96.90
2023-01-20T18:26:44.851Z,97.40
2023-01-20T18:29:16.846Z,96.70
2023-01-20T18:35:10.312Z,96.40
2023-01-20T18:41:02.922Z,97.20
2023-01-20T18:43:51.215Z,98.10
2023-01-20T18:46:20.602Z,98.10
2023-01-20T18:48:52.171Z,98.00
2023-01-20T18:51:58.433Z,98.60
2023-01-20T18:54:30.153Z,99.60
2023-01-20T18:56:59.011Z,99.90
2023-01-20T18:59:28.065Z,99.90
2023-01-20T19:01:58.605Z,99.90
2023-01-20T19:04:27.441Z,99.90
2023-01-20T19:07:16.660Z,99.90
2023-01-20T19:09:48.021Z,99.90
2023-01-20T19:12:35.954Z,99.90
2023-01-20T19:15:05.111Z,99.90
2023-01-20T19:17:34.265Z,99.90
2023-01-20T19:20:21.833Z,99.90
2023-01-20T19:22:52.050Z,99.90
2023-01-20T19:25:20.863Z,99.90
2023-01-20T19:28:25.279Z,99.90
2023-01-20T19:30:54.196Z,99.90
2023-01-20T19:33:23.032Z,99.90
2023-01-20T19:36:14.083Z,99.90
2023-01-20T19:39:03.290Z,99.90
2023-01-20T19:42:09.314Z,99.90
2023-01-20T19:44:38.051Z,99.90
2023-01-20T19:47:25.098Z,99.90
2023-01-20T19:49:53.833Z,99.90
2023-01-20T19:52:40.836Z,99.90
2023-01-20T19:55:29.476Z,99.90
2023-01-20T19:58:34.019Z,99.90
2023-01-20T20:01:09.724Z,99.90
2023-01-20T20:03:38.963Z,99.90
2023-01-20T20:06:09.165Z,99.90
2023-01-20T20:08:37.908Z,99.90
2023-01-20T20:11:11.966Z,99.90
2023-01-20T20:13:40.742Z,99.90
2023-01-20T20:16:09.768Z,99.90
2023-01-20T20:19:14.385Z,99.90
2023-01-20T20:22:01.430Z,99.90
2023-01-20T20:24:48.895Z,99.70
2023-01-20T20:27:37.611Z,99.30
2023-01-20T20:30:24.737Z,99.30
2023-01-20T20:33:11.823Z,99.20
2023-01-20T20:35:40.990Z,99.60
2023-01-20T20:38:27.633Z,99.20
2023-01-20T20:40:59.726Z,99.20
2023-01-20T20:43:29.913Z,99.20
2023-01-20T20:46:03.688Z,99.10
2023-01-20T20:48:34.132Z,99.30
2023-01-20T20:51:07.270Z,99.50
2023-01-20T20:53:53.340Z,99.30
2023-01-20T20:56:22.168Z,99.70
2023-01-20T20:59:11.231Z,99.80
2023-01-20T21:01:42.220Z,99.40
2023-01-20T21:04:11.859Z,99.00
2023-01-20T21:06:40.773Z,98.70
2023-01-20T21:09:27.354Z,98.60
2023-01-20T21:11:56.512Z,98.60
2023-01-20T21:14:45.093Z,98.50
2023-01-20T21:17:13.951Z,98.40
2023-01-20T21:19:42.730Z,98.30
2023-01-20T21:22:11.782Z,97.90
2023-01-20T21:24:40.558Z,98.30
2023-01-20T21:27:09.441Z,98.30
2023-01-20T21:29:38.830Z,98.40
2023-01-20T21:32:46.756Z,98.50
2023-01-20T21:35:15.750Z,98.50
2023-01-20T21:38:02.998Z,98.80
2023-01-20T21:40:34.608Z,98.60
2023-01-20T21:46:44.179Z,98.40
2023-01-20T21:49:31.666Z,98.70
2023-01-20T21:52:19.733Z,98.50
2023-01-20T21:54:48.615Z,98.00
2023-01-20T21:57:17.683Z,98.20
2023-01-20T22:00:06.248Z,98.40
2023-01-20T22:02:59.722Z,98.60
2023-01-20T22:08:34.582Z,98.30
2023-01-20T22:11:03.509Z,98.60
2023-01-20T22:13:54.409Z,98.50
2023-01-20T22:16:23.862Z,97.90
2023-01-20T22:18:53.600Z,98.00
2023-01-20T22:21:42.627Z,97.10
2023-01-20T22:24:12.289Z,96.60
2023-01-20T22:30:04.745Z,94.50
2023-01-20T22:32:54.029Z,94.10
2023-01-20T22:35:39.948Z,93.60
2023-01-20T22:38:29.014Z,94.30
2023-01-20T22:41:33.587Z,93.10
2023-01-20T22:44:02.421Z,91.30
2023-01-20T22:47:10.270Z,89.90
2023-01-20T22:49:39.099Z,89.80
2023-01-20T22:52:07.932Z,90.00
2023-01-20T22:54:55.677Z,86.20
2023-01-20T22:57:24.498Z,87.50
2023-01-20T23:00:12.356Z,86.40
2023-01-20T23:02:41.077Z,85.50
2023-01-20T23:05:10.203Z,84.80
2023-01-20T23:07:57.656Z,85.90
2023-01-20T23:11:04.839Z,87.50
2023-01-20T23:13:36.814Z,89.00
2023-01-20T23:16:07.050Z,88.70
2023-01-20T23:18:37.163Z,90.00
2023-01-20T23:21:23.941Z,90.20
2023-01-20T23:23:54.925Z,90.00
2023-01-20T23:26:29.329Z,90.00
2023-01-20T23:29:35.458Z,89.80
2023-01-20T23:32:22.612Z,89.80
2023-01-20T23:34:51.368Z,89.10
2023-01-20T23:37:20.179Z,89.20
2023-01-20T23:39:52.132Z,89.80
2023-01-20T23:42:21.208Z,89.10
2023-01-20T23:44:51.789Z,89.20
2023-01-20T23:47:20.533Z,88.80
2023-01-20T23:50:25.122Z,89.10
2023-01-20T23:53:31.811Z,88.20
2023-01-20T23:56:19.478Z,88.20
2023-01-20T23:58:48.975Z,87.50
